Trade, TN

5:35 PM EDT on April 01, 2015 (GMT -0400)
Trade | | Change Station
CLOSE
Current Station
Personal Weather Station
Location: Trade, TN
Elevation: 3143 ft
Nearby Weather Stations

Elev 3143 ft 36.38 °N, 81.75 °W | Updated 38 seconds ago

Clear
Clear
67.3 °F
Feels Like 67.3 °F
N
2.5
Wind Variable Wind from NW
Gusts 5.8 mph

Today
High -- | Low -- °F
--% Chance of Precip.
Yesterday
High -- | Low -- °F
Precip. -- in
7:13 AM 7:48 PM
Waxing Gibbous, 94% visible
Pressure 30.11 in
Visibility 10.0 miles
Clouds Clear
Dew Point -9 °F
Humidity 4%
Rainfall 0.00 in
Snow Depth Not available.
UV 3 out of 12
Pollen 9.70 out of 12
Air Quality Not available.
Flu Activity Not available.
METAR KTNB 012115Z AUTO 30007KT 10SM CLR 18/M14 A3011 RMK AO2 T01801144

More Conditions Fewer Conditions

Pressure 30.11 in
Visibility 10.0 miles
Clouds Clear
Dew Point -9 °F
Humidity 4%
Rainfall 0.00 in
Snow Depth Not available.
UV 3 out of 12
Pollen 9.70 out of 12
Air Quality Not available.
Flu Activity Not available.
METAR KTNB 012115Z AUTO 30007KT 10SM CLR 18/M14 A3011 RMK AO2 T01801144

More Conditions Fewer Conditions

10-Day Weather Forecast

Almanac

Astronomy

Apr. 01, 2015 Rise Set
Actual Time
Civil Twilight
Nautical Twilight
Astronomical Twilight
Moon
Length of Visible Light
Length of Day
Tomorrow will be .
, % of the Moon is Illuminated

Today's Extremes

State Highs State Lows

Community

WunderPhotos

Upload Photos

1,810,090 photos uploaded!

WunderBlogs® & News

Nearby

Air Quality

  Air Quality AQ Index Pollutant
Not available.

Snow Depth

Station Depth Elevation

Earthquake Activity

City Distance Mag. Time & Date
Minimum magnitude displayed is 2.5.

Coastal Water Temperatures

Place Temperature

Stations

Nearby Weather Stations

Station Location Temp. Windchill Dew Point Humidity Wind Precip. Elev Updated Type